createdAt,value
2018-07-06T00:00:50.480Z,6.17
2018-07-06T00:03:45.373Z,5.87
2018-07-06T00:09:23.616Z,5.90
2018-07-06T00:12:15.441Z,5.43
2018-07-06T00:17:51.331Z,5.77
2018-07-06T00:20:33.366Z,5.87
2018-07-06T00:23:21.448Z,5.97
2018-07-06T00:26:08.610Z,6.33
2018-07-06T00:28:54.926Z,6.37
2018-07-06T00:31:38.710Z,5.70
2018-07-06T00:34:31.962Z,5.73
2018-07-06T00:37:13.892Z,5.50
2018-07-06T00:39:55.697Z,5.40
2018-07-06T00:42:36.836Z,5.13
2018-07-06T00:45:25.398Z,5.67
2018-07-06T00:48:11.126Z,5.20
2018-07-06T00:50:53.614Z,5.50
2018-07-06T00:53:36.325Z,5.40
2018-07-06T00:56:17.094Z,5.60
2018-07-06T00:58:57.565Z,5.80
2018-07-06T01:01:48.485Z,5.53
2018-07-06T01:04:29.660Z,5.57
2018-07-06T01:07:10.282Z,5.73
2018-07-06T01:09:56.442Z,5.33
2018-07-06T01:12:42.272Z,5.43
2018-07-06T01:15:31.191Z,5.37
2018-07-06T01:18:20.208Z,5.60
2018-07-06T01:21:02.393Z,6.27
2018-07-06T01:24:05.846Z,5.70
2018-07-06T01:26:46.792Z,5.77
2018-07-06T01:29:29.400Z,6.40
2018-07-06T01:35:02.819Z,6.37
2018-07-06T01:37:45.494Z,7.40
2018-07-06T01:40:28.280Z,6.70
2018-07-06T01:43:12.186Z,7.80
2018-07-06T01:45:53.513Z,8.10
2018-07-06T01:48:45.027Z,8.30
2018-07-06T01:51:26.280Z,9.60
2018-07-06T01:54:09.191Z,9.00
2018-07-06T01:56:51.704Z,8.90
2018-07-06T01:59:36.463Z,8.27
2018-07-06T02:02:22.697Z,8.03
2018-07-06T02:05:07.734Z,8.23
2018-07-06T02:08:02.128Z,8.10
2018-07-06T02:10:58.234Z,7.50
2018-07-06T02:14:40.878Z,7.00
2018-07-06T02:20:35.831Z,4.93
2018-07-06T02:23:22.913Z,4.80
2018-07-06T02:26:22.387Z,5.60
2018-07-06T02:29:02.544Z,5.50
2018-07-06T02:33:26.229Z,5.20
2018-07-06T02:36:06.974Z,3.00
2018-07-06T02:39:04.355Z,3.30
2018-07-06T02:42:02.093Z,2.77
2018-07-06T02:48:15.378Z,3.20
2018-07-06T03:20:11.412Z,2.20
2018-07-06T03:22:53.115Z,1.97
2018-07-06T03:25:40.836Z,2.17
2018-07-06T03:28:33.031Z,2.00
2018-07-06T14:20:22.678Z,6.45
2018-07-06T14:22:52.322Z,6.35
2018-07-06T14:28:17.698Z,6.12
2018-07-06T14:30:47.084Z,6.05
2018-07-06T14:33:22.824Z,5.80
2018-07-06T14:35:56.215Z,6.35
2018-07-06T14:38:27.534Z,6.00
2018-07-06T14:41:02.326Z,5.87
2018-07-06T14:43:33.296Z,5.47
2018-07-06T14:46:03.389Z,5.70
2018-07-06T14:48:32.804Z,5.58
2018-07-06T14:51:02.005Z,6.23
2018-07-06T14:53:31.856Z,5.53
2018-07-06T14:56:00.924Z,5.03
2018-07-06T15:05:18.099Z,6.10
